sensor_id;sensor_type;location;lat;lon;timestamp;P1;durP1;ratioP1;P2;durP2;ratioP2
77802;SDS011;66993;48.256;16.422;2023-04-15T00:01:48;2.4;;;1.8;;
77802;SDS011;66993;48.256;16.422;2023-04-15T00:06:49;2.2;;;1.9;;
77802;SDS011;66993;48.256;16.422;2023-04-15T00:11:51;3.0;;;2.8;;
77802;SDS011;66993;48.256;16.422;2023-04-15T00:16:51;2.8;;;2.1;;
77802;SDS011;66993;48.256;16.422;2023-04-15T00:21:53;2.0;;;1.6;;
77802;SDS011;66993;48.256;16.422;2023-04-15T00:26:54;2.5;;;2.2;;
77802;SDS011;66993;48.256;16.422;2023-04-15T00:31:55;1.9;;;1.7;;
77802;SDS011;66993;48.256;16.422;2023-04-15T00:36:57;2.1;;;1.9;;
77802;SDS011;66993;48.256;16.422;2023-04-15T00:41:58;1.8;;;1.6;;
77802;SDS011;66993;48.256;16.422;2023-04-15T00:46:59;1.6;;;1.5;;
77802;SDS011;66993;48.256;16.422;2023-04-15T00:52:00;1.9;;;1.6;;
77802;SDS011;66993;48.256;16.422;2023-04-15T00:57:04;2.2;;;2.1;;
77802;SDS011;66993;48.256;16.422;2023-04-15T01:02:03;1.7;;;1.6;;
77802;SDS011;66993;48.256;16.422;2023-04-15T01:07:04;1.7;;;1.6;;
77802;SDS011;66993;48.256;16.422;2023-04-15T01:12:06;1.7;;;1.2;;
77802;SDS011;66993;48.256;16.422;2023-04-15T01:17:07;1.7;;;1.6;;
77802;SDS011;66993;48.256;16.422;2023-04-15T01:22:08;1.8;;;1.7;;
77802;SDS011;66993;48.256;16.422;2023-04-15T01:27:09;1.7;;;1.6;;
77802;SDS011;66993;48.256;16.422;2023-04-15T01:32:11;1.3;;;1.2;;
77802;SDS011;66993;48.256;16.422;2023-04-15T01:37:12;1.2;;;1.1;;
77802;SDS011;66993;48.256;16.422;2023-04-15T01:42:13;1.5;;;1.3;;
77802;SDS011;66993;48.256;16.422;2023-04-15T01:47:15;1.8;;;1.7;;
77802;SDS011;66993;48.256;16.422;2023-04-15T01:52:16;1.7;;;1.6;;
77802;SDS011;66993;48.256;16.422;2023-04-15T01:57:18;1.9;;;1.4;;
77802;SDS011;66993;48.256;16.422;2023-04-15T02:02:18;1.7;;;1.6;;
77802;SDS011;66993;48.256;16.422;2023-04-15T02:07:20;1.6;;;1.5;;
77802;SDS011;66993;48.256;16.422;2023-04-15T02:12:21;1.7;;;1.6;;
77802;SDS011;66993;48.256;16.422;2023-04-15T02:17:22;2.2;;;1.6;;
77802;SDS011;66993;48.256;16.422;2023-04-15T02:22:24;1.6;;;1.5;;
77802;SDS011;66993;48.256;16.422;2023-04-15T02:27:25;2.6;;;2.3;;
77802;SDS011;66993;48.256;16.422;2023-04-15T02:32:26;2.0;;;1.9;;
77802;SDS011;66993;48.256;16.422;2023-04-15T02:37:28;2.4;;;2.2;;
77802;SDS011;66993;48.256;16.422;2023-04-15T02:42:29;2.4;;;2.2;;
77802;SDS011;66993;48.256;16.422;2023-04-15T02:47:30;2.8;;;2.1;;
77802;SDS011;66993;48.256;16.422;2023-04-15T02:52:31;2.2;;;2.0;;
77802;SDS011;66993;48.256;16.422;2023-04-15T02:57:33;1.8;;;1.7;;
77802;SDS011;66993;48.256;16.422;2023-04-15T03:02:35;2.2;;;2.0;;
77802;SDS011;66993;48.256;16.422;2023-04-15T03:07:35;2.5;;;1.8;;
77802;SDS011;66993;48.256;16.422;2023-04-15T03:12:37;1.9;;;1.5;;
77802;SDS011;66993;48.256;16.422;2023-04-15T03:17:38;1.9;;;1.6;;
77802;SDS011;66993;48.256;16.422;2023-04-15T03:22:40;2.1;;;1.9;;
77802;SDS011;66993;48.256;16.422;2023-04-15T03:27:41;2.0;;;1.8;;
77802;SDS011;66993;48.256;16.422;2023-04-15T03:32:42;2.6;;;2.4;;
77802;SDS011;66993;48.256;16.422;2023-04-15T03:37:43;1.9;;;1.7;;
77802;SDS011;66993;48.256;16.422;2023-04-15T03:42:44;2.2;;;1.9;;
77802;SDS011;66993;48.256;16.422;2023-04-15T03:47:46;2.5;;;2.1;;
77802;SDS011;66993;48.256;16.422;2023-04-15T03:52:47;3.7;;;2.4;;
77802;SDS011;66993;48.256;16.422;2023-04-15T03:57:48;5.5;;;3.2;;
77802;SDS011;66993;48.256;16.422;2023-04-15T04:02:50;9.0;;;5.1;;
77802;SDS011;66993;48.256;16.422;2023-04-15T04:07:51;6.9;;;3.8;;
77802;SDS011;66993;48.256;16.422;2023-04-15T04:12:52;7.9;;;3.6;;
77802;SDS011;66993;48.256;16.422;2023-04-15T04:17:53;3.9;;;2.7;;
77802;SDS011;66993;48.256;16.422;2023-04-15T04:22:55;3.4;;;2.5;;
77802;SDS011;66993;48.256;16.422;2023-04-15T04:27:56;3.7;;;2.5;;
77802;SDS011;66993;48.256;16.422;2023-04-15T04:32:58;3.9;;;2.7;;
77802;SDS011;66993;48.256;16.422;2023-04-15T04:37:58;3.3;;;2.4;;
77802;SDS011;66993;48.256;16.422;2023-04-15T04:43:00;3.3;;;2.7;;
77802;SDS011;66993;48.256;16.422;2023-04-15T04:48:01;3.7;;;2.7;;
77802;SDS011;66993;48.256;16.422;2023-04-15T04:53:02;4.2;;;2.9;;
77802;SDS011;66993;48.256;16.422;2023-04-15T04:58:04;4.6;;;3.0;;
77802;SDS011;66993;48.256;16.422;2023-04-15T05:03:05;5.6;;;3.7;;
77802;SDS011;66993;48.256;16.422;2023-04-15T05:08:06;4.4;;;3.7;;
77802;SDS011;66993;48.256;16.422;2023-04-15T05:13:08;5.3;;;4.6;;
77802;SDS011;66993;48.256;16.422;2023-04-15T05:18:09;7.1;;;5.6;;
77802;SDS011;66993;48.256;16.422;2023-04-15T05:23:11;6.7;;;5.1;;
77802;SDS011;66993;48.256;16.422;2023-04-15T05:28:12;7.4;;;6.1;;
77802;SDS011;66993;48.256;16.422;2023-04-15T05:33:14;8.5;;;6.2;;
77802;SDS011;66993;48.256;16.422;2023-04-15T05:38:14;6.5;;;5.8;;
77802;SDS011;66993;48.256;16.422;2023-04-15T05:43:16;4.9;;;3.5;;
77802;SDS011;66993;48.256;16.422;2023-04-15T05:48:17;5.6;;;3.8;;
77802;SDS011;66993;48.256;16.422;2023-04-15T05:53:19;5.1;;;3.7;;
77802;SDS011;66993;48.256;16.422;2023-04-15T05:58:20;4.5;;;3.2;;
77802;SDS011;66993;48.256;16.422;2023-04-15T06:03:21;5.7;;;3.4;;
77802;SDS011;66993;48.256;16.422;2023-04-15T06:08:22;4.5;;;3.0;;
77802;SDS011;66993;48.256;16.422;2023-04-15T06:13:24;4.6;;;2.8;;
77802;SDS011;66993;48.256;16.422;2023-04-15T06:18:25;3.7;;;2.7;;
77802;SDS011;66993;48.256;16.422;2023-04-15T06:23:26;3.7;;;3.1;;
77802;SDS011;66993;48.256;16.422;2023-04-15T06:28:28;3.7;;;2.6;;
77802;SDS011;66993;48.256;16.422;2023-04-15T06:33:30;3.9;;;2.5;;
77802;SDS011;66993;48.256;16.422;2023-04-15T06:38:30;3.3;;;2.1;;
77802;SDS011;66993;48.256;16.422;2023-04-15T06:43:32;4.1;;;2.8;;
77802;SDS011;66993;48.256;16.422;2023-04-15T06:48:33;9.1;;;4.3;;
77802;SDS011;66993;48.256;16.422;2023-04-15T06:53:35;4.1;;;2.7;;
77802;SDS011;66993;48.256;16.422;2023-04-15T06:58:36;5.0;;;3.0;;
77802;SDS011;66993;48.256;16.422;2023-04-15T07:03:38;4.5;;;3.3;;
77802;SDS011;66993;48.256;16.422;2023-04-15T07:08:39;3.5;;;3.1;;
77802;SDS011;66993;48.256;16.422;2023-04-15T07:13:40;3.7;;;2.7;;
77802;SDS011;66993;48.256;16.422;2023-04-15T07:18:41;3.0;;;2.2;;
77802;SDS011;66993;48.256;16.422;2023-04-15T07:23:43;3.4;;;1.9;;
77802;SDS011;66993;48.256;16.422;2023-04-15T07:28:44;2.7;;;1.9;;
77802;SDS011;66993;48.256;16.422;2023-04-15T07:33:45;2.4;;;2.0;;
77802;SDS011;66993;48.256;16.422;2023-04-15T07:38:47;3.5;;;3.0;;
77802;SDS011;66993;48.256;16.422;2023-04-15T07:43:48;2.6;;;2.0;;
77802;SDS011;66993;48.256;16.422;2023-04-15T07:48:49;3.2;;;2.8;;
77802;SDS011;66993;48.256;16.422;2023-04-15T07:53:50;2.8;;;2.3;;
77802;SDS011;66993;48.256;16.422;2023-04-15T07:58:52;3.4;;;2.4;;
77802;SDS011;66993;48.256;16.422;2023-04-15T08:03:53;2.7;;;2.1;;
77802;SDS011;66993;48.256;16.422;2023-04-15T08:08:54;2.5;;;1.9;;
77802;SDS011;66993;48.256;16.422;2023-04-15T08:13:56;2.1;;;1.7;;
77802;SDS011;66993;48.256;16.422;2023-04-15T08:18:57;2.3;;;1.6;;
77802;SDS011;66993;48.256;16.422;2023-04-15T08:23:58;2.9;;;2.0;;
77802;SDS011;66993;48.256;16.422;2023-04-15T08:29:00;2.4;;;1.9;;
77802;SDS011;66993;48.256;16.422;2023-04-15T08:34:01;1.8;;;1.7;;
77802;SDS011;66993;48.256;16.422;2023-04-15T08:39:03;2.7;;;1.9;;
77802;SDS011;66993;48.256;16.422;2023-04-15T08:44:04;1.9;;;1.4;;
77802;SDS011;66993;48.256;16.422;2023-04-15T08:49:06;2.7;;;1.9;;
77802;SDS011;66993;48.256;16.422;2023-04-15T08:54:07;2.3;;;2.0;;
77802;SDS011;66993;48.256;16.422;2023-04-15T08:59:08;2.6;;;2.0;;
77802;SDS011;66993;48.256;16.422;2023-04-15T09:04:10;2.0;;;1.7;;
77802;SDS011;66993;48.256;16.422;2023-04-15T09:09:11;2.0;;;1.4;;
77802;SDS011;66993;48.256;16.422;2023-04-15T09:14:12;2.1;;;1.7;;
77802;SDS011;66993;48.256;16.422;2023-04-15T09:19:19;2.1;;;1.8;;
77802;SDS011;66993;48.256;16.422;2023-04-15T09:24:14;2.7;;;2.5;;
77802;SDS011;66993;48.256;16.422;2023-04-15T09:29:16;2.1;;;1.6;;
77802;SDS011;66993;48.256;16.422;2023-04-15T09:34:17;2.4;;;1.6;;
77802;SDS011;66993;48.256;16.422;2023-04-15T09:39:19;1.7;;;1.5;;
77802;SDS011;66993;48.256;16.422;2023-04-15T09:44:22;2.1;;;1.9;;
77802;SDS011;66993;48.256;16.422;2023-04-15T09:49:21;1.7;;;1.6;;
77802;SDS011;66993;48.256;16.422;2023-04-15T09:54:22;2.5;;;1.4;;
77802;SDS011;66993;48.256;16.422;2023-04-15T09:59:24;2.0;;;1.6;;
77802;SDS011;66993;48.256;16.422;2023-04-15T10:04:25;2.1;;;1.7;;
77802;SDS011;66993;48.256;16.422;2023-04-15T10:09:27;2.0;;;1.6;;
77802;SDS011;66993;48.256;16.422;2023-04-15T10:14:28;2.1;;;1.7;;
77802;SDS011;66993;48.256;16.422;2023-04-15T10:19:30;1.8;;;1.3;;
77802;SDS011;66993;48.256;16.422;2023-04-15T10:24:30;2.1;;;1.3;;
77802;SDS011;66993;48.256;16.422;2023-04-15T10:29:32;2.7;;;2.3;;
77802;SDS011;66993;48.256;16.422;2023-04-15T10:34:33;2.0;;;1.3;;
77802;SDS011;66993;48.256;16.422;2023-04-15T10:39:39;1.8;;;1.6;;
77802;SDS011;66993;48.256;16.422;2023-04-15T10:44:36;2.4;;;1.6;;
77802;SDS011;66993;48.256;16.422;2023-04-15T10:49:43;1.8;;;1.4;;
77802;SDS011;66993;48.256;16.422;2023-04-15T10:54:38;1.5;;;1.4;;
77802;SDS011;66993;48.256;16.422;2023-04-15T11:09:42;1.9;;;1.2;;
77802;SDS011;66993;48.256;16.422;2023-04-15T11:14:45;1.5;;;1.1;;
77802;SDS011;66993;48.256;16.422;2023-04-15T11:19:45;2.0;;;1.3;;
77802;SDS011;66993;48.256;16.422;2023-04-15T11:24:47;1.7;;;1.3;;
77802;SDS011;66993;48.256;16.422;2023-04-15T11:29:48;1.9;;;1.2;;
77802;SDS011;66993;48.256;16.422;2023-04-15T11:34:50;2.0;;;1.4;;
77802;SDS011;66993;48.256;16.422;2023-04-15T11:39:51;1.8;;;1.5;;
77802;SDS011;66993;48.256;16.422;2023-04-15T11:44:56;3.0;;;1.8;;
77802;SDS011;66993;48.256;16.422;2023-04-15T11:49:53;1.9;;;1.4;;
77802;SDS011;66993;48.256;16.422;2023-04-15T11:59:56;2.0;;;1.2;;
77802;SDS011;66993;48.256;16.422;2023-04-15T12:05:02;3.4;;;1.3;;
77802;SDS011;66993;48.256;16.422;2023-04-15T12:09:58;1.9;;;1.3;;
77802;SDS011;66993;48.256;16.422;2023-04-15T12:15:00;1.7;;;1.4;;
77802;SDS011;66993;48.256;16.422;2023-04-15T12:20:01;1.8;;;1.5;;
77802;SDS011;66993;48.256;16.422;2023-04-15T12:25:02;1.7;;;1.2;;
77802;SDS011;66993;48.256;16.422;2023-04-15T12:30:04;2.2;;;1.5;;
77802;SDS011;66993;48.256;16.422;2023-04-15T12:35:05;2.0;;;1.3;;
77802;SDS011;66993;48.256;16.422;2023-04-15T12:40:07;1.7;;;1.2;;
77802;SDS011;66993;48.256;16.422;2023-04-15T12:45:08;2.3;;;1.4;;
77802;SDS011;66993;48.256;16.422;2023-04-15T12:50:09;2.3;;;1.7;;
77802;SDS011;66993;48.256;16.422;2023-04-15T12:55:10;1.9;;;1.2;;
77802;SDS011;66993;48.256;16.422;2023-04-15T13:00:12;1.8;;;1.4;;
77802;SDS011;66993;48.256;16.422;2023-04-15T13:05:13;3.3;;;1.7;;
77802;SDS011;66993;48.256;16.422;2023-04-15T13:10:14;1.8;;;1.6;;
77802;SDS011;66993;48.256;16.422;2023-04-15T13:15:16;2.3;;;1.6;;
77802;SDS011;66993;48.256;16.422;2023-04-15T13:20:17;1.9;;;1.4;;
77802;SDS011;66993;48.256;16.422;2023-04-15T13:25:18;1.3;;;1.2;;
77802;SDS011;66993;48.256;16.422;2023-04-15T13:30:20;1.5;;;1.3;;
77802;SDS011;66993;48.256;16.422;2023-04-15T13:35:21;1.3;;;1.0;;
77802;SDS011;66993;48.256;16.422;2023-04-15T13:40:23;1.3;;;1.1;;
77802;SDS011;66993;48.256;16.422;2023-04-15T13:45:23;1.1;;;1.0;;
77802;SDS011;66993;48.256;16.422;2023-04-15T13:50:26;1.5;;;1.3;;
77802;SDS011;66993;48.256;16.422;2023-04-15T13:55:26;1.2;;;1.0;;
77802;SDS011;66993;48.256;16.422;2023-04-15T14:00:28;1.1;;;1.0;;
77802;SDS011;66993;48.256;16.422;2023-04-15T14:05:29;1.3;;;1.2;;
77802;SDS011;66993;48.256;16.422;2023-04-15T14:10:30;1.4;;;1.2;;
77802;SDS011;66993;48.256;16.422;2023-04-15T14:15:31;1.8;;;1.4;;
77802;SDS011;66993;48.256;16.422;2023-04-15T14:20:33;1.7;;;1.3;;
77802;SDS011;66993;48.256;16.422;2023-04-15T14:25:34;1.8;;;1.6;;
77802;SDS011;66993;48.256;16.422;2023-04-15T14:30:36;1.7;;;1.4;;
77802;SDS011;66993;48.256;16.422;2023-04-15T14:35:37;1.5;;;1.3;;
77802;SDS011;66993;48.256;16.422;2023-04-15T14:40:39;1.9;;;1.6;;
77802;SDS011;66993;48.256;16.422;2023-04-15T14:45:40;1.9;;;1.3;;
77802;SDS011;66993;48.256;16.422;2023-04-15T14:50:41;1.6;;;1.4;;
77802;SDS011;66993;48.256;16.422;2023-04-15T14:55:42;1.5;;;1.2;;
77802;SDS011;66993;48.256;16.422;2023-04-15T15:00:43;1.6;;;1.3;;
77802;SDS011;66993;48.256;16.422;2023-04-15T15:05:45;1.9;;;1.5;;
77802;SDS011;66993;48.256;16.422;2023-04-15T15:10:46;2.1;;;1.4;;
77802;SDS011;66993;48.256;16.422;2023-04-15T15:15:47;2.3;;;1.6;;
77802;SDS011;66993;48.256;16.422;2023-04-15T15:20:49;2.5;;;1.8;;
77802;SDS011;66993;48.256;16.422;2023-04-15T15:25:50;3.1;;;2.0;;
77802;SDS011;66993;48.256;16.422;2023-04-15T15:30:51;2.6;;;1.8;;
77802;SDS011;66993;48.256;16.422;2023-04-15T15:35:53;3.3;;;1.8;;
77802;SDS011;66993;48.256;16.422;2023-04-15T15:40:54;3.2;;;2.3;;
77802;SDS011;66993;48.256;16.422;2023-04-15T15:45:55;3.0;;;2.0;;
77802;SDS011;66993;48.256;16.422;2023-04-15T15:50:57;3.9;;;1.9;;
77802;SDS011;66993;48.256;16.422;2023-04-15T15:55:58;2.8;;;2.1;;
77802;SDS011;66993;48.256;16.422;2023-04-15T16:00:59;3.1;;;1.8;;
77802;SDS011;66993;48.256;16.422;2023-04-15T16:06:01;2.1;;;1.6;;
77802;SDS011;66993;48.256;16.422;2023-04-15T16:11:02;2.0;;;1.5;;
77802;SDS011;66993;48.256;16.422;2023-04-15T16:16:04;2.0;;;1.4;;
77802;SDS011;66993;48.256;16.422;2023-04-15T16:21:05;3.4;;;2.1;;
77802;SDS011;66993;48.256;16.422;2023-04-15T16:26:06;2.0;;;1.5;;
77802;SDS011;66993;48.256;16.422;2023-04-15T16:31:07;2.8;;;2.1;;
77802;SDS011;66993;48.256;16.422;2023-04-15T16:36:09;2.4;;;1.6;;
77802;SDS011;66993;48.256;16.422;2023-04-15T16:41:10;2.3;;;1.5;;
77802;SDS011;66993;48.256;16.422;2023-04-15T16:46:12;2.8;;;1.9;;
77802;SDS011;66993;48.256;16.422;2023-04-15T16:51:13;3.2;;;1.6;;
77802;SDS011;66993;48.256;16.422;2023-04-15T16:56:14;2.7;;;1.6;;
77802;SDS011;66993;48.256;16.422;2023-04-15T17:01:15;2.6;;;1.6;;
77802;SDS011;66993;48.256;16.422;2023-04-15T17:06:17;2.5;;;1.6;;
77802;SDS011;66993;48.256;16.422;2023-04-15T17:11:18;2.3;;;1.7;;
77802;SDS011;66993;48.256;16.422;2023-04-15T17:16:20;2.1;;;1.5;;
77802;SDS011;66993;48.256;16.422;2023-04-15T17:21:21;2.9;;;2.0;;
77802;SDS011;66993;48.256;16.422;2023-04-15T17:26:22;2.3;;;1.7;;
77802;SDS011;66993;48.256;16.422;2023-04-15T17:31:23;2.5;;;1.8;;
77802;SDS011;66993;48.256;16.422;2023-04-15T17:36:25;2.3;;;1.7;;
77802;SDS011;66993;48.256;16.422;2023-04-15T17:41:26;2.4;;;1.7;;
77802;SDS011;66993;48.256;16.422;2023-04-15T17:46:28;3.5;;;2.2;;
77802;SDS011;66993;48.256;16.422;2023-04-15T17:51:29;2.7;;;1.9;;
77802;SDS011;66993;48.256;16.422;2023-04-15T17:56:30;2.8;;;1.9;;
77802;SDS011;66993;48.256;16.422;2023-04-15T18:01:31;2.7;;;2.1;;
77802;SDS011;66993;48.256;16.422;2023-04-15T18:06:33;2.8;;;2.4;;
77802;SDS011;66993;48.256;16.422;2023-04-15T18:11:34;3.5;;;2.4;;
77802;SDS011;66993;48.256;16.422;2023-04-15T18:16:36;3.0;;;2.3;;
77802;SDS011;66993;48.256;16.422;2023-04-15T18:21:37;4.6;;;2.6;;
77802;SDS011;66993;48.256;16.422;2023-04-15T18:26:38;4.9;;;2.7;;
77802;SDS011;66993;48.256;16.422;2023-04-15T18:31:39;3.9;;;2.6;;
77802;SDS011;66993;48.256;16.422;2023-04-15T18:36:41;4.0;;;2.5;;
77802;SDS011;66993;48.256;16.422;2023-04-15T18:41:42;4.6;;;2.6;;
77802;SDS011;66993;48.256;16.422;2023-04-15T18:46:43;4.5;;;2.6;;
77802;SDS011;66993;48.256;16.422;2023-04-15T18:51:45;4.6;;;3.0;;
77802;SDS011;66993;48.256;16.422;2023-04-15T18:56:46;4.5;;;2.7;;
77802;SDS011;66993;48.256;16.422;2023-04-15T19:01:47;3.9;;;2.9;;
77802;SDS011;66993;48.256;16.422;2023-04-15T19:06:49;4.9;;;3.0;;
77802;SDS011;66993;48.256;16.422;2023-04-15T19:11:50;4.5;;;3.0;;
77802;SDS011;66993;48.256;16.422;2023-04-15T19:16:51;4.0;;;2.6;;
77802;SDS011;66993;48.256;16.422;2023-04-15T19:21:53;4.8;;;3.1;;
77802;SDS011;66993;48.256;16.422;2023-04-15T19:26:54;3.9;;;2.9;;
77802;SDS011;66993;48.256;16.422;2023-04-15T19:31:55;4.9;;;3.8;;
77802;SDS011;66993;48.256;16.422;2023-04-15T19:36:57;5.8;;;4.4;;
77802;SDS011;66993;48.256;16.422;2023-04-15T19:41:58;7.4;;;4.3;;
77802;SDS011;66993;48.256;16.422;2023-04-15T19:46:59;5.7;;;3.8;;
77802;SDS011;66993;48.256;16.422;2023-04-15T19:52:00;7.0;;;4.3;;
77802;SDS011;66993;48.256;16.422;2023-04-15T19:57:02;7.0;;;4.7;;
77802;SDS011;66993;48.256;16.422;2023-04-15T20:02:04;6.4;;;4.1;;
77802;SDS011;66993;48.256;16.422;2023-04-15T20:07:04;9.4;;;5.7;;
77802;SDS011;66993;48.256;16.422;2023-04-15T20:12:06;10.1;;;6.2;;
77802;SDS011;66993;48.256;16.422;2023-04-15T20:17:07;9.4;;;6.2;;
77802;SDS011;66993;48.256;16.422;2023-04-15T20:22:08;11.7;;;6.6;;
77802;SDS011;66993;48.256;16.422;2023-04-15T20:27:10;10.5;;;6.6;;
77802;SDS011;66993;48.256;16.422;2023-04-15T20:32:11;9.6;;;6.2;;
77802;SDS011;66993;48.256;16.422;2023-04-15T20:37:12;13.7;;;8.3;;
77802;SDS011;66993;48.256;16.422;2023-04-15T20:42:14;10.8;;;7.2;;
77802;SDS011;66993;48.256;16.422;2023-04-15T20:47:15;11.6;;;6.8;;
77802;SDS011;66993;48.256;16.422;2023-04-15T20:52:17;11.7;;;7.0;;
77802;SDS011;66993;48.256;16.422;2023-04-15T20:57:18;11.9;;;7.2;;
77802;SDS011;66993;48.256;16.422;2023-04-15T21:02:19;14.7;;;8.0;;
77802;SDS011;66993;48.256;16.422;2023-04-15T21:07:20;13.0;;;7.9;;
77802;SDS011;66993;48.256;16.422;2023-04-15T21:12:22;11.8;;;7.3;;
77802;SDS011;66993;48.256;16.422;2023-04-15T21:17:23;12.4;;;7.1;;
77802;SDS011;66993;48.256;16.422;2023-04-15T21:22:24;12.1;;;7.4;;
77802;SDS011;66993;48.256;16.422;2023-04-15T21:27:25;11.2;;;6.9;;
77802;SDS011;66993;48.256;16.422;2023-04-15T21:32:27;11.5;;;7.0;;
77802;SDS011;66993;48.256;16.422;2023-04-15T21:37:28;12.2;;;7.0;;
77802;SDS011;66993;48.256;16.422;2023-04-15T21:42:30;13.1;;;7.2;;
77802;SDS011;66993;48.256;16.422;2023-04-15T21:47:30;9.7;;;6.0;;
77802;SDS011;66993;48.256;16.422;2023-04-15T21:52:32;10.1;;;6.1;;
77802;SDS011;66993;48.256;16.422;2023-04-15T21:57:33;15.8;;;7.9;;
77802;SDS011;66993;48.256;16.422;2023-04-15T22:02:35;12.2;;;7.2;;
77802;SDS011;66993;48.256;16.422;2023-04-15T22:07:36;11.7;;;7.2;;
77802;SDS011;66993;48.256;16.422;2023-04-15T22:12:38;15.8;;;8.9;;
77802;SDS011;66993;48.256;16.422;2023-04-15T22:17:39;12.1;;;7.4;;
77802;SDS011;66993;48.256;16.422;2023-04-15T22:22:40;14.1;;;8.5;;
77802;SDS011;66993;48.256;16.422;2023-04-15T22:27:41;12.3;;;7.1;;
77802;SDS011;66993;48.256;16.422;2023-04-15T22:32:43;11.9;;;7.0;;
77802;SDS011;66993;48.256;16.422;2023-04-15T22:37:44;15.2;;;8.7;;
77802;SDS011;66993;48.256;16.422;2023-04-15T22:42:45;17.2;;;9.1;;
77802;SDS011;66993;48.256;16.422;2023-04-15T22:47:46;11.9;;;8.1;;
77802;SDS011;66993;48.256;16.422;2023-04-15T22:52:47;15.0;;;8.9;;
77802;SDS011;66993;48.256;16.422;2023-04-15T22:57:49;12.3;;;7.7;;
77802;SDS011;66993;48.256;16.422;2023-04-15T23:02:50;17.2;;;11.0;;
77802;SDS011;66993;48.256;16.422;2023-04-15T23:07:51;14.7;;;9.6;;
77802;SDS011;66993;48.256;16.422;2023-04-15T23:12:53;14.9;;;9.0;;
77802;SDS011;66993;48.256;16.422;2023-04-15T23:17:54;18.8;;;11.0;;
77802;SDS011;66993;48.256;16.422;2023-04-15T23:22:56;13.9;;;9.0;;
77802;SDS011;66993;48.256;16.422;2023-04-15T23:27:57;21.6;;;12.6;;
77802;SDS011;66993;48.256;16.422;2023-04-15T23:32:58;22.5;;;12.8;;
77802;SDS011;66993;48.256;16.422;2023-04-15T23:37:59;18.6;;;11.7;;
77802;SDS011;66993;48.256;16.422;2023-04-15T23:43:00;18.2;;;11.5;;
77802;SDS011;66993;48.256;16.422;2023-04-15T23:48:02;15.6;;;10.2;;
77802;SDS011;66993;48.256;16.422;2023-04-15T23:53:03;18.2;;;11.0;;
77802;SDS011;66993;48.256;16.422;2023-04-15T23:58:04;19.7;;;12.0;;
